sensor_id;sensor_type;location;lat;lon;timestamp;temperature;humidity
1728;DHT22;861;48.808;9.006;2023-02-02T00:01:34;6.10;99.90
1728;DHT22;861;48.808;9.006;2023-02-02T00:04:01;6.10;99.90
1728;DHT22;861;48.808;9.006;2023-02-02T00:06:30;6.10;99.90
1728;DHT22;861;48.808;9.006;2023-02-02T00:09:01;6.00;99.90
1728;DHT22;861;48.808;9.006;2023-02-02T00:11:28;6.00;99.90
1728;DHT22;861;48.808;9.006;2023-02-02T00:13:54;6.10;99.90
1728;DHT22;861;48.808;9.006;2023-02-02T00:19:03;6.10;99.90
1728;DHT22;861;48.808;9.006;2023-02-02T00:21:35;6.10;99.90
1728;DHT22;861;48.808;9.006;2023-02-02T00:24:06;6.10;99.90
1728;DHT22;861;48.808;9.006;2023-02-02T00:26:37;6.10;99.90
1728;DHT22;861;48.808;9.006;2023-02-02T00:29:10;6.10;99.90
1728;DHT22;861;48.808;9.006;2023-02-02T00:31:45;6.10;99.90
1728;DHT22;861;48.808;9.006;2023-02-02T00:34:14;6.10;99.90
1728;DHT22;861;48.808;9.006;2023-02-02T00:36:42;6.20;99.90
1728;DHT22;861;48.808;9.006;2023-02-02T00:39:18;6.20;99.90
1728;DHT22;861;48.808;9.006;2023-02-02T00:41:50;6.20;99.90
1728;DHT22;861;48.808;9.006;2023-02-02T00:44:16;6.20;99.90
1728;DHT22;861;48.808;9.006;2023-02-02T00:47:02;6.30;99.90
1728;DHT22;861;48.808;9.006;2023-02-02T00:49:29;6.20;99.90
1728;DHT22;861;48.808;9.006;2023-02-02T00:51:56;6.30;99.90
1728;DHT22;861;48.808;9.006;2023-02-02T00:54:22;6.20;99.90
1728;DHT22;861;48.808;9.006;2023-02-02T00:56:48;6.20;99.90
1728;DHT22;861;48.808;9.006;2023-02-02T00:59:14;6.20;99.90
1728;DHT22;861;48.808;9.006;2023-02-02T01:01:40;6.20;99.90
1728;DHT22;861;48.808;9.006;2023-02-02T01:04:07;6.10;99.90
1728;DHT22;861;48.808;9.006;2023-02-02T01:06:33;6.20;99.90
1728;DHT22;861;48.808;9.006;2023-02-02T01:09:00;6.10;99.90
1728;DHT22;861;48.808;9.006;2023-02-02T01:11:27;6.10;99.90
1728;DHT22;861;48.808;9.006;2023-02-02T01:13:56;6.10;99.90
1728;DHT22;861;48.808;9.006;2023-02-02T01:16:22;6.10;99.90
1728;DHT22;861;48.808;9.006;2023-02-02T01:18:50;6.10;99.90
1728;DHT22;861;48.808;9.006;2023-02-02T01:21:17;6.00;99.90
1728;DHT22;861;48.808;9.006;2023-02-02T01:23:44;6.00;99.90
1728;DHT22;861;48.808;9.006;2023-02-02T01:26:12;6.00;99.90
1728;DHT22;861;48.808;9.006;2023-02-02T01:28:40;6.10;99.90
1728;DHT22;861;48.808;9.006;2023-02-02T01:31:26;6.00;99.90
1728;DHT22;861;48.808;9.006;2023-02-02T01:33:52;5.90;99.90
1728;DHT22;861;48.808;9.006;2023-02-02T01:36:22;5.90;99.90
1728;DHT22;861;48.808;9.006;2023-02-02T01:38:49;5.80;99.90
1728;DHT22;861;48.808;9.006;2023-02-02T01:41:21;5.80;99.90
1728;DHT22;861;48.808;9.006;2023-02-02T01:44:05;5.80;99.90
1728;DHT22;861;48.808;9.006;2023-02-02T01:47:11;5.80;99.90
1728;DHT22;861;48.808;9.006;2023-02-02T01:49:40;5.80;99.90
1728;DHT22;861;48.808;9.006;2023-02-02T01:52:09;5.80;99.90
1728;DHT22;861;48.808;9.006;2023-02-02T01:55:02;5.90;99.90
1728;DHT22;861;48.808;9.006;2023-02-02T02:00:24;5.90;99.90
1728;DHT22;861;48.808;9.006;2023-02-02T02:03:10;5.90;99.90
1728;DHT22;861;48.808;9.006;2023-02-02T02:05:55;6.00;99.90
1728;DHT22;861;48.808;9.006;2023-02-02T02:08:38;6.00;99.90
1728;DHT22;861;48.808;9.006;2023-02-02T02:11:13;6.00;99.90
1728;DHT22;861;48.808;9.006;2023-02-02T02:13:41;6.00;99.90
1728;DHT22;861;48.808;9.006;2023-02-02T02:33:24;6.00;99.90
1728;DHT22;861;48.808;9.006;2023-02-02T02:36:26;6.00;99.90
1728;DHT22;861;48.808;9.006;2023-02-02T02:43:26;5.90;99.90
1728;DHT22;861;48.808;9.006;2023-02-02T02:46:04;5.90;99.90
1728;DHT22;861;48.808;9.006;2023-02-02T02:48:33;5.90;99.90
1728;DHT22;861;48.808;9.006;2023-02-02T02:51:08;5.80;99.90
1728;DHT22;861;48.808;9.006;2023-02-02T02:54:26;5.90;99.90
1728;DHT22;861;48.808;9.006;2023-02-02T03:00:46;5.80;99.90
1728;DHT22;861;48.808;9.006;2023-02-02T03:03:59;5.90;99.90
1728;DHT22;861;48.808;9.006;2023-02-02T03:09:56;5.80;99.90
1728;DHT22;861;48.808;9.006;2023-02-02T03:12:27;5.90;99.90
1728;DHT22;861;48.808;9.006;2023-02-02T03:14:54;6.00;99.90
1728;DHT22;861;48.808;9.006;2023-02-02T03:17:20;6.00;99.90
1728;DHT22;861;48.808;9.006;2023-02-02T03:19:46;6.00;99.90
1728;DHT22;861;48.808;9.006;2023-02-02T03:22:12;6.10;99.90
1728;DHT22;861;48.808;9.006;2023-02-02T03:24:38;6.10;99.90
1728;DHT22;861;48.808;9.006;2023-02-02T03:27:05;6.20;99.90
1728;DHT22;861;48.808;9.006;2023-02-02T03:29:31;6.20;99.90
1728;DHT22;861;48.808;9.006;2023-02-02T03:31:58;6.20;99.90
1728;DHT22;861;48.808;9.006;2023-02-02T03:34:24;6.20;99.90
1728;DHT22;861;48.808;9.006;2023-02-02T03:36:50;6.20;99.90
1728;DHT22;861;48.808;9.006;2023-02-02T03:39:16;6.20;99.90
1728;DHT22;861;48.808;9.006;2023-02-02T03:41:42;6.20;99.90
1728;DHT22;861;48.808;9.006;2023-02-02T03:44:08;6.10;99.90
1728;DHT22;861;48.808;9.006;2023-02-02T03:46:34;6.10;99.90
1728;DHT22;861;48.808;9.006;2023-02-02T03:49:00;6.10;99.90
1728;DHT22;861;48.808;9.006;2023-02-02T03:51:26;6.10;99.90
1728;DHT22;861;48.808;9.006;2023-02-02T03:53:53;6.10;99.90
1728;DHT22;861;48.808;9.006;2023-02-02T03:56:19;6.10;99.90
1728;DHT22;861;48.808;9.006;2023-02-02T03:58:45;5.80;99.90
1728;DHT22;861;48.808;9.006;2023-02-02T04:01:13;6.10;99.90
1728;DHT22;861;48.808;9.006;2023-02-02T04:03:40;6.40;99.90
1728;DHT22;861;48.808;9.006;2023-02-02T04:06:08;6.10;99.90
1728;DHT22;861;48.808;9.006;2023-02-02T04:08:34;6.20;99.90
1728;DHT22;861;48.808;9.006;2023-02-02T04:11:01;6.10;99.90
1728;DHT22;861;48.808;9.006;2023-02-02T04:13:27;6.20;99.90
1728;DHT22;861;48.808;9.006;2023-02-02T04:16:00;6.10;99.90
1728;DHT22;861;48.808;9.006;2023-02-02T04:18:28;6.20;99.90
1728;DHT22;861;48.808;9.006;2023-02-02T04:21:00;6.10;99.90
1728;DHT22;861;48.808;9.006;2023-02-02T04:23:28;6.10;99.90
1728;DHT22;861;48.808;9.006;2023-02-02T04:25:57;6.10;99.90
1728;DHT22;861;48.808;9.006;2023-02-02T04:28:26;6.10;99.90
1728;DHT22;861;48.808;9.006;2023-02-02T04:30:55;6.10;99.90
1728;DHT22;861;48.808;9.006;2023-02-02T04:33:25;6.10;99.90
1728;DHT22;861;48.808;9.006;2023-02-02T04:35:53;6.10;99.90
1728;DHT22;861;48.808;9.006;2023-02-02T04:38:20;6.20;99.90
1728;DHT22;861;48.808;9.006;2023-02-02T04:40:47;6.20;99.90
1728;DHT22;861;48.808;9.006;2023-02-02T04:43:14;6.20;99.90
1728;DHT22;861;48.808;9.006;2023-02-02T04:45:41;6.10;99.90
1728;DHT22;861;48.808;9.006;2023-02-02T04:48:08;6.20;99.90
1728;DHT22;861;48.808;9.006;2023-02-02T04:50:34;6.20;99.90
1728;DHT22;861;48.808;9.006;2023-02-02T04:53:01;6.20;99.90
1728;DHT22;861;48.808;9.006;2023-02-02T04:55:29;6.20;99.90
1728;DHT22;861;48.808;9.006;2023-02-02T04:57:55;6.30;99.90
1728;DHT22;861;48.808;9.006;2023-02-02T05:00:21;6.20;99.90
1728;DHT22;861;48.808;9.006;2023-02-02T05:02:47;6.20;99.90
1728;DHT22;861;48.808;9.006;2023-02-02T05:05:14;6.20;99.90
1728;DHT22;861;48.808;9.006;2023-02-02T05:07:40;6.30;99.90
1728;DHT22;861;48.808;9.006;2023-02-02T05:10:08;6.30;99.90
1728;DHT22;861;48.808;9.006;2023-02-02T05:12:35;6.30;99.90
1728;DHT22;861;48.808;9.006;2023-02-02T05:15:02;6.20;99.90
1728;DHT22;861;48.808;9.006;2023-02-02T05:17:31;6.30;99.90
1728;DHT22;861;48.808;9.006;2023-02-02T05:19:58;6.30;99.90
1728;DHT22;861;48.808;9.006;2023-02-02T05:22:24;6.30;99.90
1728;DHT22;861;48.808;9.006;2023-02-02T05:24:50;6.30;99.90
1728;DHT22;861;48.808;9.006;2023-02-02T05:27:16;6.30;99.90
1728;DHT22;861;48.808;9.006;2023-02-02T05:29:42;6.30;99.90
1728;DHT22;861;48.808;9.006;2023-02-02T05:34:35;6.10;99.90
1728;DHT22;861;48.808;9.006;2023-02-02T05:37:01;6.20;99.90
1728;DHT22;861;48.808;9.006;2023-02-02T05:39:27;6.20;99.90
1728;DHT22;861;48.808;9.006;2023-02-02T05:41:53;6.30;99.90
1728;DHT22;861;48.808;9.006;2023-02-02T05:44:19;6.20;99.90
1728;DHT22;861;48.808;9.006;2023-02-02T05:46:45;6.30;99.90
1728;DHT22;861;48.808;9.006;2023-02-02T05:49:14;6.30;99.90
1728;DHT22;861;48.808;9.006;2023-02-02T05:51:46;6.30;99.90
1728;DHT22;861;48.808;9.006;2023-02-02T05:54:17;6.30;99.90
1728;DHT22;861;48.808;9.006;2023-02-02T05:56:47;6.30;99.90
1728;DHT22;861;48.808;9.006;2023-02-02T05:59:14;6.20;99.90
1728;DHT22;861;48.808;9.006;2023-02-02T06:01:45;6.30;99.90
1728;DHT22;861;48.808;9.006;2023-02-02T06:04:13;6.20;99.90
1728;DHT22;861;48.808;9.006;2023-02-02T06:06:41;6.10;99.90
1728;DHT22;861;48.808;9.006;2023-02-02T06:09:07;6.10;99.90
1728;DHT22;861;48.808;9.006;2023-02-02T06:11:35;6.10;99.90
1728;DHT22;861;48.808;9.006;2023-02-02T06:14:01;6.10;99.90
1728;DHT22;861;48.808;9.006;2023-02-02T06:16:27;6.10;99.90
1728;DHT22;861;48.808;9.006;2023-02-02T06:18:53;6.10;99.90
1728;DHT22;861;48.808;9.006;2023-02-02T06:21:19;6.10;99.90
1728;DHT22;861;48.808;9.006;2023-02-02T06:23:49;6.10;99.90
1728;DHT22;861;48.808;9.006;2023-02-02T06:26:16;6.10;99.90
1728;DHT22;861;48.808;9.006;2023-02-02T06:28:50;6.20;99.90
1728;DHT22;861;48.808;9.006;2023-02-02T06:31:19;6.10;99.90
1728;DHT22;861;48.808;9.006;2023-02-02T06:33:57;6.20;99.90
1728;DHT22;861;48.808;9.006;2023-02-02T06:36:26;6.10;99.90
1728;DHT22;861;48.808;9.006;2023-02-02T06:38:55;6.10;99.90
1728;DHT22;861;48.808;9.006;2023-02-02T06:41:23;6.20;99.90
1728;DHT22;861;48.808;9.006;2023-02-02T06:43:50;6.20;99.90
1728;DHT22;861;48.808;9.006;2023-02-02T06:48:43;6.20;99.90
1728;DHT22;861;48.808;9.006;2023-02-02T06:51:10;6.20;99.90
1728;DHT22;861;48.808;9.006;2023-02-02T06:53:36;6.20;99.90
1728;DHT22;861;48.808;9.006;2023-02-02T06:56:05;6.20;99.90
1728;DHT22;861;48.808;9.006;2023-02-02T06:58:36;6.20;99.90
1728;DHT22;861;48.808;9.006;2023-02-02T07:01:09;6.20;99.90
1728;DHT22;861;48.808;9.006;2023-02-02T07:03:38;6.20;99.90
1728;DHT22;861;48.808;9.006;2023-02-02T07:06:26;6.20;99.90
1728;DHT22;861;48.808;9.006;2023-02-02T07:08:55;6.20;99.90
1728;DHT22;861;48.808;9.006;2023-02-02T07:11:22;6.20;99.90
1728;DHT22;861;48.808;9.006;2023-02-02T07:13:49;6.30;99.90
1728;DHT22;861;48.808;9.006;2023-02-02T07:16:17;6.30;99.90
1728;DHT22;861;48.808;9.006;2023-02-02T07:18:44;6.30;99.90
1728;DHT22;861;48.808;9.006;2023-02-02T07:21:23;6.20;99.90
1728;DHT22;861;48.808;9.006;2023-02-02T07:23:52;6.20;99.90
1728;DHT22;861;48.808;9.006;2023-02-02T07:26:19;6.20;99.90
1728;DHT22;861;48.808;9.006;2023-02-02T07:28:46;6.30;99.90
1728;DHT22;861;48.808;9.006;2023-02-02T07:31:20;6.30;99.90
1728;DHT22;861;48.808;9.006;2023-02-02T07:33:51;6.30;99.90
1728;DHT22;861;48.808;9.006;2023-02-02T07:36:21;6.30;99.90
1728;DHT22;861;48.808;9.006;2023-02-02T07:38:52;6.30;99.90
1728;DHT22;861;48.808;9.006;2023-02-02T07:41:20;6.40;99.90
1728;DHT22;861;48.808;9.006;2023-02-02T07:43:48;6.40;99.90
1728;DHT22;861;48.808;9.006;2023-02-02T07:46:17;6.40;99.90
1728;DHT22;861;48.808;9.006;2023-02-02T07:48:45;6.40;99.90
1728;DHT22;861;48.808;9.006;2023-02-02T07:51:16;6.30;99.90
1728;DHT22;861;48.808;9.006;2023-02-02T07:53:48;6.30;99.90
1728;DHT22;861;48.808;9.006;2023-02-02T07:56:26;6.30;99.90
1728;DHT22;861;48.808;9.006;2023-02-02T07:58:54;6.30;99.90
1728;DHT22;861;48.808;9.006;2023-02-02T08:01:23;6.30;99.90
1728;DHT22;861;48.808;9.006;2023-02-02T08:03:53;6.40;99.90
1728;DHT22;861;48.808;9.006;2023-02-02T08:06:27;6.40;99.90
1728;DHT22;861;48.808;9.006;2023-02-02T08:09:07;6.40;99.90
1728;DHT22;861;48.808;9.006;2023-02-02T08:11:36;6.40;99.90
1728;DHT22;861;48.808;9.006;2023-02-02T08:14:05;6.40;99.90
1728;DHT22;861;48.808;9.006;2023-02-02T08:16:33;6.50;99.90
1728;DHT22;861;48.808;9.006;2023-02-02T08:19:00;6.50;99.90
1728;DHT22;861;48.808;9.006;2023-02-02T08:21:26;6.50;99.90
1728;DHT22;861;48.808;9.006;2023-02-02T08:23:52;6.50;99.90
1728;DHT22;861;48.808;9.006;2023-02-02T08:26:26;6.50;99.90
1728;DHT22;861;48.808;9.006;2023-02-02T08:29:06;6.60;99.90
1728;DHT22;861;48.808;9.006;2023-02-02T08:31:38;6.60;99.90
1728;DHT22;861;48.808;9.006;2023-02-02T08:34:08;6.70;99.90
1728;DHT22;861;48.808;9.006;2023-02-02T08:36:36;6.70;99.90
1728;DHT22;861;48.808;9.006;2023-02-02T08:39:06;6.80;99.90
1728;DHT22;861;48.808;9.006;2023-02-02T08:41:37;6.90;99.90
1728;DHT22;861;48.808;9.006;2023-02-02T08:44:11;6.90;99.90
1728;DHT22;861;48.808;9.006;2023-02-02T08:46:40;6.90;99.90
1728;DHT22;861;48.808;9.006;2023-02-02T08:49:11;6.90;99.90
1728;DHT22;861;48.808;9.006;2023-02-02T08:51:39;6.90;99.90
1728;DHT22;861;48.808;9.006;2023-02-02T08:54:07;6.90;99.90
1728;DHT22;861;48.808;9.006;2023-02-02T08:56:33;7.00;99.90
1728;DHT22;861;48.808;9.006;2023-02-02T08:58:59;7.00;99.90
1728;DHT22;861;48.808;9.006;2023-02-02T09:01:32;7.00;99.90
1728;DHT22;861;48.808;9.006;2023-02-02T09:04:06;7.00;99.90
1728;DHT22;861;48.808;9.006;2023-02-02T09:06:41;7.00;99.90
1728;DHT22;861;48.808;9.006;2023-02-02T09:09:13;7.00;99.90
1728;DHT22;861;48.808;9.006;2023-02-02T09:11:42;7.00;99.90
1728;DHT22;861;48.808;9.006;2023-02-02T09:14:12;7.00;99.90
1728;DHT22;861;48.808;9.006;2023-02-02T09:16:39;6.90;99.90
1728;DHT22;861;48.808;9.006;2023-02-02T09:19:06;6.80;99.90
1728;DHT22;861;48.808;9.006;2023-02-02T09:21:33;6.80;99.90
1728;DHT22;861;48.808;9.006;2023-02-02T09:24:11;6.80;99.90
1728;DHT22;861;48.808;9.006;2023-02-02T09:26:39;6.70;99.90
1728;DHT22;861;48.808;9.006;2023-02-02T09:29:12;6.80;99.90
1728;DHT22;861;48.808;9.006;2023-02-02T09:31:42;6.70;99.90
1728;DHT22;861;48.808;9.006;2023-02-02T09:34:12;6.70;99.90
1728;DHT22;861;48.808;9.006;2023-02-02T09:36:42;6.70;99.90
1728;DHT22;861;48.808;9.006;2023-02-02T09:39:11;6.70;99.90
1728;DHT22;861;48.808;9.006;2023-02-02T09:45:03;6.70;99.90
1728;DHT22;861;48.808;9.006;2023-02-02T09:48:07;6.60;99.90
1728;DHT22;861;48.808;9.006;2023-02-02T09:51:15;6.70;99.90
1728;DHT22;861;48.808;9.006;2023-02-02T09:53:59;6.70;99.90
1728;DHT22;861;48.808;9.006;2023-02-02T09:56:45;6.70;99.90
1728;DHT22;861;48.808;9.006;2023-02-02T09:59:32;6.80;99.90
1728;DHT22;861;48.808;9.006;2023-02-02T10:02:38;6.70;99.90
1728;DHT22;861;48.808;9.006;2023-02-02T10:05:22;6.80;99.90
1728;DHT22;861;48.808;9.006;2023-02-02T10:08:02;6.70;99.90
1728;DHT22;861;48.808;9.006;2023-02-02T10:10:41;6.80;99.90
1728;DHT22;861;48.808;9.006;2023-02-02T10:13:24;6.80;99.90
1728;DHT22;861;48.808;9.006;2023-02-02T10:16:05;6.80;99.90
1728;DHT22;861;48.808;9.006;2023-02-02T10:19:03;6.80;99.90
1728;DHT22;861;48.808;9.006;2023-02-02T10:22:11;6.80;99.90
1728;DHT22;861;48.808;9.006;2023-02-02T10:24:46;6.80;99.90
1728;DHT22;861;48.808;9.006;2023-02-02T10:27:36;6.80;99.90
1728;DHT22;861;48.808;9.006;2023-02-02T10:30:58;6.80;99.90
1728;DHT22;861;48.808;9.006;2023-02-02T10:33:38;6.80;99.90
1728;DHT22;861;48.808;9.006;2023-02-02T10:36:27;6.80;99.90
1728;DHT22;861;48.808;9.006;2023-02-02T10:43:03;6.90;99.90
1728;DHT22;861;48.808;9.006;2023-02-02T10:46:42;6.90;99.90
1728;DHT22;861;48.808;9.006;2023-02-02T10:49:36;6.90;99.90
1728;DHT22;861;48.808;9.006;2023-02-02T10:55:24;7.00;99.90
1728;DHT22;861;48.808;9.006;2023-02-02T10:58:23;7.00;99.90
1728;DHT22;861;48.808;9.006;2023-02-02T11:00:58;7.00;99.90
1728;DHT22;861;48.808;9.006;2023-02-02T11:03:31;6.90;99.90
1728;DHT22;861;48.808;9.006;2023-02-02T11:06:03;7.00;99.90
1728;DHT22;861;48.808;9.006;2023-02-02T11:08:53;7.00;99.90
1728;DHT22;861;48.808;9.006;2023-02-02T11:11:38;6.90;99.90
1728;DHT22;861;48.808;9.006;2023-02-02T11:16:43;6.90;99.90
1728;DHT22;861;48.808;9.006;2023-02-02T11:21:53;7.00;99.90
1728;DHT22;861;48.808;9.006;2023-02-02T11:24:55;7.10;99.90
1728;DHT22;861;48.808;9.006;2023-02-02T11:27:45;7.20;99.90
1728;DHT22;861;48.808;9.006;2023-02-02T11:30:33;7.20;99.90
1728;DHT22;861;48.808;9.006;2023-02-02T11:33:33;7.10;99.90
1728;DHT22;861;48.808;9.006;2023-02-02T11:36:06;7.20;99.90
1728;DHT22;861;48.808;9.006;2023-02-02T11:38:45;7.20;99.90
1728;DHT22;861;48.808;9.006;2023-02-02T11:41:12;7.20;99.90
1728;DHT22;861;48.808;9.006;2023-02-02T11:43:54;7.10;99.90
1728;DHT22;861;48.808;9.006;2023-02-02T11:46:29;7.10;99.90
1728;DHT22;861;48.808;9.006;2023-02-02T11:49:05;7.20;99.90
1728;DHT22;861;48.808;9.006;2023-02-02T11:51:42;7.10;99.90
1728;DHT22;861;48.808;9.006;2023-02-02T11:54:28;7.10;99.90
1728;DHT22;861;48.808;9.006;2023-02-02T11:57:07;7.10;99.90
1728;DHT22;861;48.808;9.006;2023-02-02T11:59:43;7.10;99.90
1728;DHT22;861;48.808;9.006;2023-02-02T12:02:26;7.10;99.90
1728;DHT22;861;48.808;9.006;2023-02-02T12:07:48;7.00;99.90
1728;DHT22;861;48.808;9.006;2023-02-02T12:13:56;6.90;99.90
1728;DHT22;861;48.808;9.006;2023-02-02T12:17:01;6.90;99.90
1728;DHT22;861;48.808;9.006;2023-02-02T12:20:08;6.90;99.90
1728;DHT22;861;48.808;9.006;2023-02-02T12:26:27;6.90;99.90
1728;DHT22;861;48.808;9.006;2023-02-02T12:40:22;6.70;99.90
1728;DHT22;861;48.808;9.006;2023-02-02T13:03:02;6.60;99.90
1728;DHT22;861;48.808;9.006;2023-02-02T13:09:05;6.60;99.90
1728;DHT22;861;48.808;9.006;2023-02-02T13:12:10;6.50;99.90
1728;DHT22;861;48.808;9.006;2023-02-02T13:14:56;6.50;99.90
1728;DHT22;861;48.808;9.006;2023-02-02T13:17:56;6.50;99.90
1728;DHT22;861;48.808;9.006;2023-02-02T13:20:48;6.50;99.90
1728;DHT22;861;48.808;9.006;2023-02-02T13:23:29;6.50;99.90
1728;DHT22;861;48.808;9.006;2023-02-02T13:26:27;6.50;99.90
1728;DHT22;861;48.808;9.006;2023-02-02T13:29:32;6.50;99.90
1728;DHT22;861;48.808;9.006;2023-02-02T13:32:24;6.60;99.90
1728;DHT22;861;48.808;9.006;2023-02-02T13:35:22;6.60;99.90
1728;DHT22;861;48.808;9.006;2023-02-02T13:38:15;6.60;99.90
1728;DHT22;861;48.808;9.006;2023-02-02T13:40:54;6.60;99.90
1728;DHT22;861;48.808;9.006;2023-02-02T13:43:41;6.60;99.90
1728;DHT22;861;48.808;9.006;2023-02-02T13:46:48;6.60;99.90
1728;DHT22;861;48.808;9.006;2023-02-02T13:49:52;6.70;99.90
1728;DHT22;861;48.808;9.006;2023-02-02T13:53:03;6.80;99.90
1728;DHT22;861;48.808;9.006;2023-02-02T14:02:42;6.80;99.90
1728;DHT22;861;48.808;9.006;2023-02-02T14:05:39;6.80;99.90
1728;DHT22;861;48.808;9.006;2023-02-02T14:08:19;6.90;99.90
1728;DHT22;861;48.808;9.006;2023-02-02T14:13:32;6.80;99.90
1728;DHT22;861;48.808;9.006;2023-02-02T14:19:03;6.90;99.90
1728;DHT22;861;48.808;9.006;2023-02-02T14:26:58;7.00;99.90
1728;DHT22;861;48.808;9.006;2023-02-02T14:38:20;7.00;99.90
1728;DHT22;861;48.808;9.006;2023-02-02T14:44:20;6.90;99.90
1728;DHT22;861;48.808;9.006;2023-02-02T14:46:46;7.00;99.90
1728;DHT22;861;48.808;9.006;2023-02-02T14:49:22;7.00;99.90
1728;DHT22;861;48.808;9.006;2023-02-02T14:52:00;7.00;99.90
1728;DHT22;861;48.808;9.006;2023-02-02T14:54:39;7.00;99.90
1728;DHT22;861;48.808;9.006;2023-02-02T14:57:26;7.00;99.90
1728;DHT22;861;48.808;9.006;2023-02-02T14:59:56;7.00;99.90
1728;DHT22;861;48.808;9.006;2023-02-02T15:02:34;7.10;99.90
1728;DHT22;861;48.808;9.006;2023-02-02T15:10:56;7.10;99.90
1728;DHT22;861;48.808;9.006;2023-02-02T15:13:35;7.00;99.90
1728;DHT22;861;48.808;9.006;2023-02-02T15:16:30;7.00;99.90
1728;DHT22;861;48.808;9.006;2023-02-02T15:19:22;7.10;99.90
1728;DHT22;861;48.808;9.006;2023-02-02T15:25:39;7.10;99.90
1728;DHT22;861;48.808;9.006;2023-02-02T15:34:33;7.10;99.90
1728;DHT22;861;48.808;9.006;2023-02-02T15:37:36;7.10;99.90
1728;DHT22;861;48.808;9.006;2023-02-02T15:40:20;7.10;99.90
1728;DHT22;861;48.808;9.006;2023-02-02T15:43:12;7.00;99.90
1728;DHT22;861;48.808;9.006;2023-02-02T15:45:52;7.10;99.90
1728;DHT22;861;48.808;9.006;2023-02-02T15:48:31;7.10;99.90
1728;DHT22;861;48.808;9.006;2023-02-02T15:51:06;7.10;99.90
1728;DHT22;861;48.808;9.006;2023-02-02T15:56:37;7.20;99.90
1728;DHT22;861;48.808;9.006;2023-02-02T15:59:23;7.20;99.90
1728;DHT22;861;48.808;9.006;2023-02-02T16:02:33;7.20;99.90
1728;DHT22;861;48.808;9.006;2023-02-02T16:08:19;7.20;99.90
1728;DHT22;861;48.808;9.006;2023-02-02T16:11:22;7.20;99.90
1728;DHT22;861;48.808;9.006;2023-02-02T16:14:11;7.30;99.90
1728;DHT22;861;48.808;9.006;2023-02-02T16:16:43;7.30;99.90
1728;DHT22;861;48.808;9.006;2023-02-02T16:19:24;7.20;99.90
1728;DHT22;861;48.808;9.006;2023-02-02T16:22:02;7.30;99.90
1728;DHT22;861;48.808;9.006;2023-02-02T16:24:43;7.30;99.90
1728;DHT22;861;48.808;9.006;2023-02-02T16:27:20;7.30;99.90
1728;DHT22;861;48.808;9.006;2023-02-02T16:29:53;7.20;99.90
1728;DHT22;861;48.808;9.006;2023-02-02T16:32:26;7.20;99.90
1728;DHT22;861;48.808;9.006;2023-02-02T16:34:58;7.30;99.90
1728;DHT22;861;48.808;9.006;2023-02-02T16:37:32;7.30;99.90
1728;DHT22;861;48.808;9.006;2023-02-02T16:40:27;7.30;99.90
1728;DHT22;861;48.808;9.006;2023-02-02T16:43:16;7.20;99.90
1728;DHT22;861;48.808;9.006;2023-02-02T16:45:56;7.20;99.90
1728;DHT22;861;48.808;9.006;2023-02-02T16:48:34;7.20;99.90
1728;DHT22;861;48.808;9.006;2023-02-02T16:59:24;7.10;99.90
1728;DHT22;861;48.808;9.006;2023-02-02T17:02:04;7.10;99.90
1728;DHT22;861;48.808;9.006;2023-02-02T17:05:14;7.00;99.90
1728;DHT22;861;48.808;9.006;2023-02-02T17:07:56;7.00;99.90
1728;DHT22;861;48.808;9.006;2023-02-02T17:10:43;7.00;99.90
1728;DHT22;861;48.808;9.006;2023-02-02T17:15:59;7.00;99.90
1728;DHT22;861;48.808;9.006;2023-02-02T17:18:25;6.90;99.90
1728;DHT22;861;48.808;9.006;2023-02-02T17:20:55;6.90;99.90
1728;DHT22;861;48.808;9.006;2023-02-02T17:23:31;6.90;99.90
1728;DHT22;861;48.808;9.006;2023-02-02T17:26:02;7.00;99.90
1728;DHT22;861;48.808;9.006;2023-02-02T17:28:37;7.00;99.90
1728;DHT22;861;48.808;9.006;2023-02-02T17:31:13;6.90;99.90
1728;DHT22;861;48.808;9.006;2023-02-02T17:33:42;6.90;99.90
1728;DHT22;861;48.808;9.006;2023-02-02T17:36:11;6.80;99.90
1728;DHT22;861;48.808;9.006;2023-02-02T17:38:38;6.90;99.90
1728;DHT22;861;48.808;9.006;2023-02-02T17:41:05;6.80;99.90
1728;DHT22;861;48.808;9.006;2023-02-02T17:43:32;6.80;99.90
1728;DHT22;861;48.808;9.006;2023-02-02T17:45:59;6.70;99.90
1728;DHT22;861;48.808;9.006;2023-02-02T17:48:27;6.70;99.90
1728;DHT22;861;48.808;9.006;2023-02-02T17:50:53;6.70;99.90
1728;DHT22;861;48.808;9.006;2023-02-02T17:53:21;6.70;99.90
1728;DHT22;861;48.808;9.006;2023-02-02T17:55:49;6.70;99.90
1728;DHT22;861;48.808;9.006;2023-02-02T17:58:16;6.70;99.90
1728;DHT22;861;48.808;9.006;2023-02-02T18:00:46;6.70;99.90
1728;DHT22;861;48.808;9.006;2023-02-02T18:03:30;6.60;99.90
1728;DHT22;861;48.808;9.006;2023-02-02T18:06:02;6.60;99.90
1728;DHT22;861;48.808;9.006;2023-02-02T18:08:31;6.60;99.90
1728;DHT22;861;48.808;9.006;2023-02-02T18:15:53;6.60;99.90
1728;DHT22;861;48.808;9.006;2023-02-02T18:18:21;6.60;99.90
1728;DHT22;861;48.808;9.006;2023-02-02T18:20:49;6.70;99.90
1728;DHT22;861;48.808;9.006;2023-02-02T18:23:17;6.70;99.90
1728;DHT22;861;48.808;9.006;2023-02-02T18:25:44;6.70;99.90
1728;DHT22;861;48.808;9.006;2023-02-02T18:28:10;6.70;99.90
1728;DHT22;861;48.808;9.006;2023-02-02T18:30:40;6.80;99.90
1728;DHT22;861;48.808;9.006;2023-02-02T18:33:08;6.80;99.90
1728;DHT22;861;48.808;9.006;2023-02-02T18:35:41;6.70;99.90
1728;DHT22;861;48.808;9.006;2023-02-02T18:38:10;6.70;99.90
1728;DHT22;861;48.808;9.006;2023-02-02T18:40:37;6.60;99.90
1728;DHT22;861;48.808;9.006;2023-02-02T18:43:03;6.70;99.90
1728;DHT22;861;48.808;9.006;2023-02-02T18:45:29;6.60;99.90
1728;DHT22;861;48.808;9.006;2023-02-02T18:47:56;6.50;99.90
1728;DHT22;861;48.808;9.006;2023-02-02T18:50:22;6.60;99.90
1728;DHT22;861;48.808;9.006;2023-02-02T18:52:49;6.50;99.90
1728;DHT22;861;48.808;9.006;2023-02-02T18:55:15;6.50;99.90
1728;DHT22;861;48.808;9.006;2023-02-02T18:57:41;6.50;99.90
1728;DHT22;861;48.808;9.006;2023-02-02T19:00:08;6.50;99.90
1728;DHT22;861;48.808;9.006;2023-02-02T19:02:36;6.50;99.90
1728;DHT22;861;48.808;9.006;2023-02-02T19:05:02;6.60;99.90
1728;DHT22;861;48.808;9.006;2023-02-02T19:07:47;6.50;99.90
1728;DHT22;861;48.808;9.006;2023-02-02T19:10:20;6.60;99.90
1728;DHT22;861;48.808;9.006;2023-02-02T19:12:57;6.60;99.90
1728;DHT22;861;48.808;9.006;2023-02-02T19:15:46;6.60;99.90
1728;DHT22;861;48.808;9.006;2023-02-02T19:18:21;6.60;99.90
1728;DHT22;861;48.808;9.006;2023-02-02T19:20:50;6.60;99.90
1728;DHT22;861;48.808;9.006;2023-02-02T19:23:24;6.60;99.90
1728;DHT22;861;48.808;9.006;2023-02-02T19:25:56;6.70;99.90
1728;DHT22;861;48.808;9.006;2023-02-02T19:28:27;6.60;99.90
1728;DHT22;861;48.808;9.006;2023-02-02T19:30:59;6.70;99.90
1728;DHT22;861;48.808;9.006;2023-02-02T19:38:45;6.80;99.90
1728;DHT22;861;48.808;9.006;2023-02-02T19:41:23;6.80;99.90
1728;DHT22;861;48.808;9.006;2023-02-02T19:43:58;6.90;99.90
1728;DHT22;861;48.808;9.006;2023-02-02T19:46:42;6.90;99.90
1728;DHT22;861;48.808;9.006;2023-02-02T19:49:32;6.80;99.90
1728;DHT22;861;48.808;9.006;2023-02-02T19:52:02;6.90;99.90
1728;DHT22;861;48.808;9.006;2023-02-02T19:54:42;6.90;99.90
1728;DHT22;861;48.808;9.006;2023-02-02T19:59:50;6.80;99.90
1728;DHT22;861;48.808;9.006;2023-02-02T20:05:43;6.80;99.90
1728;DHT22;861;48.808;9.006;2023-02-02T20:08:41;6.70;99.90
1728;DHT22;861;48.808;9.006;2023-02-02T20:11:35;6.70;99.90
1728;DHT22;861;48.808;9.006;2023-02-02T20:16:52;6.60;99.90
1728;DHT22;861;48.808;9.006;2023-02-02T20:19:40;6.60;99.90
1728;DHT22;861;48.808;9.006;2023-02-02T20:22:30;6.50;99.90
1728;DHT22;861;48.808;9.006;2023-02-02T20:25:05;6.60;99.90
1728;DHT22;861;48.808;9.006;2023-02-02T20:27:33;6.50;99.90